sensor_id;sensor_type;location;lat;lon;timestamp;P1;durP1;ratioP1;P2;durP2;ratioP2
49578;SDS011;35483;50.828;3.228;2023-02-04T00:01:46;13.68;;;6.97;;
49578;SDS011;35483;50.828;3.228;2023-02-04T00:04:13;10.77;;;6.32;;
49578;SDS011;35483;50.828;3.228;2023-02-04T00:06:39;8.82;;;6.63;;
49578;SDS011;35483;50.828;3.228;2023-02-04T00:09:05;11.25;;;6.90;;
49578;SDS011;35483;50.828;3.228;2023-02-04T00:11:31;10.45;;;7.05;;
49578;SDS011;35483;50.828;3.228;2023-02-04T00:13:57;8.93;;;6.80;;
49578;SDS011;35483;50.828;3.228;2023-02-04T00:16:22;9.70;;;7.05;;
49578;SDS011;35483;50.828;3.228;2023-02-04T00:18:48;9.88;;;6.95;;
49578;SDS011;35483;50.828;3.228;2023-02-04T00:21:15;9.82;;;7.00;;
49578;SDS011;35483;50.828;3.228;2023-02-04T00:23:42;9.85;;;7.75;;
49578;SDS011;35483;50.828;3.228;2023-02-04T00:26:07;8.55;;;7.70;;
49578;SDS011;35483;50.828;3.228;2023-02-04T00:28:33;11.70;;;7.60;;
49578;SDS011;35483;50.828;3.228;2023-02-04T00:30:59;10.82;;;8.13;;
49578;SDS011;35483;50.828;3.228;2023-02-04T00:33:24;11.20;;;8.45;;
49578;SDS011;35483;50.828;3.228;2023-02-04T00:35:50;11.73;;;7.72;;
49578;SDS011;35483;50.828;3.228;2023-02-04T00:38:16;9.68;;;8.20;;
49578;SDS011;35483;50.828;3.228;2023-02-04T00:40:42;12.30;;;8.20;;
49578;SDS011;35483;50.828;3.228;2023-02-04T00:43:07;11.75;;;7.95;;
49578;SDS011;35483;50.828;3.228;2023-02-04T00:45:33;9.80;;;7.50;;
49578;SDS011;35483;50.828;3.228;2023-02-04T00:47:59;8.88;;;7.60;;
49578;SDS011;35483;50.828;3.228;2023-02-04T00:50:24;11.68;;;7.55;;
49578;SDS011;35483;50.828;3.228;2023-02-04T00:52:50;9.93;;;7.57;;
49578;SDS011;35483;50.828;3.228;2023-02-04T00:55:16;10.13;;;7.50;;
49578;SDS011;35483;50.828;3.228;2023-02-04T00:57:43;9.68;;;7.97;;
49578;SDS011;35483;50.828;3.228;2023-02-04T01:00:14;10.77;;;7.40;;
49578;SDS011;35483;50.828;3.228;2023-02-04T01:02:40;7.93;;;6.70;;
49578;SDS011;35483;50.828;3.228;2023-02-04T01:05:08;8.32;;;7.40;;
49578;SDS011;35483;50.828;3.228;2023-02-04T01:07:34;9.70;;;7.30;;
49578;SDS011;35483;50.828;3.228;2023-02-04T01:10:00;8.85;;;7.28;;
49578;SDS011;35483;50.828;3.228;2023-02-04T01:12:26;10.52;;;6.60;;
49578;SDS011;35483;50.828;3.228;2023-02-04T01:14:53;11.07;;;6.97;;
49578;SDS011;35483;50.828;3.228;2023-02-04T01:17:19;7.68;;;6.43;;
49578;SDS011;35483;50.828;3.228;2023-02-04T01:19:45;7.60;;;6.35;;
49578;SDS011;35483;50.828;3.228;2023-02-04T01:22:11;10.90;;;6.50;;
49578;SDS011;35483;50.828;3.228;2023-02-04T01:24:37;8.63;;;5.93;;
49578;SDS011;35483;50.828;3.228;2023-02-04T01:27:03;7.70;;;6.20;;
49578;SDS011;35483;50.828;3.228;2023-02-04T01:29:29;8.05;;;5.50;;
49578;SDS011;35483;50.828;3.228;2023-02-04T01:31:54;9.00;;;6.03;;
49578;SDS011;35483;50.828;3.228;2023-02-04T01:34:20;8.05;;;5.13;;
49578;SDS011;35483;50.828;3.228;2023-02-04T01:36:46;7.40;;;5.70;;
49578;SDS011;35483;50.828;3.228;2023-02-04T01:39:11;9.23;;;5.40;;
49578;SDS011;35483;50.828;3.228;2023-02-04T01:41:37;10.25;;;5.50;;
49578;SDS011;35483;50.828;3.228;2023-02-04T01:44:04;6.68;;;5.10;;
49578;SDS011;35483;50.828;3.228;2023-02-04T01:46:30;7.53;;;4.95;;
49578;SDS011;35483;50.828;3.228;2023-02-04T01:48:58;6.80;;;5.00;;
49578;SDS011;35483;50.828;3.228;2023-02-04T01:51:25;7.78;;;4.82;;
49578;SDS011;35483;50.828;3.228;2023-02-04T01:53:54;7.57;;;5.00;;
49578;SDS011;35483;50.828;3.228;2023-02-04T01:56:24;8.27;;;4.53;;
49578;SDS011;35483;50.828;3.228;2023-02-04T01:58:51;7.10;;;4.90;;
49578;SDS011;35483;50.828;3.228;2023-02-04T02:04:07;6.70;;;4.78;;
49578;SDS011;35483;50.828;3.228;2023-02-04T02:06:37;8.23;;;4.90;;
49578;SDS011;35483;50.828;3.228;2023-02-04T02:09:06;6.85;;;4.90;;
49578;SDS011;35483;50.828;3.228;2023-02-04T02:11:32;6.43;;;4.53;;
49578;SDS011;35483;50.828;3.228;2023-02-04T02:13:58;7.90;;;4.80;;
49578;SDS011;35483;50.828;3.228;2023-02-04T02:16:24;7.28;;;4.60;;
49578;SDS011;35483;50.828;3.228;2023-02-04T02:18:50;6.25;;;4.40;;
49578;SDS011;35483;50.828;3.228;2023-02-04T02:21:25;7.47;;;5.15;;
49578;SDS011;35483;50.828;3.228;2023-02-04T02:24:01;8.27;;;5.05;;
49578;SDS011;35483;50.828;3.228;2023-02-04T02:26:57;8.45;;;4.97;;
49578;SDS011;35483;50.828;3.228;2023-02-04T02:29:27;8.98;;;5.07;;
49578;SDS011;35483;50.828;3.228;2023-02-04T02:31:53;8.52;;;5.13;;
49578;SDS011;35483;50.828;3.228;2023-02-04T02:34:21;6.57;;;4.88;;
49578;SDS011;35483;50.828;3.228;2023-02-04T02:36:48;9.80;;;5.57;;
49578;SDS011;35483;50.828;3.228;2023-02-04T02:39:14;9.38;;;5.15;;
49578;SDS011;35483;50.828;3.228;2023-02-04T02:41:40;5.80;;;4.72;;
49578;SDS011;35483;50.828;3.228;2023-02-04T02:44:05;8.43;;;5.57;;
49578;SDS011;35483;50.828;3.228;2023-02-04T02:46:31;8.95;;;5.35;;
49578;SDS011;35483;50.828;3.228;2023-02-04T02:48:57;9.73;;;5.93;;
49578;SDS011;35483;50.828;3.228;2023-02-04T02:51:24;8.50;;;5.20;;
49578;SDS011;35483;50.828;3.228;2023-02-04T02:53:49;8.85;;;4.88;;
49578;SDS011;35483;50.828;3.228;2023-02-04T02:56:16;9.15;;;5.43;;
49578;SDS011;35483;50.828;3.228;2023-02-04T02:58:43;14.57;;;6.35;;
49578;SDS011;35483;50.828;3.228;2023-02-04T03:01:09;10.43;;;6.82;;
49578;SDS011;35483;50.828;3.228;2023-02-04T03:03:37;11.25;;;6.38;;
49578;SDS011;35483;50.828;3.228;2023-02-04T03:06:08;9.98;;;6.88;;
49578;SDS011;35483;50.828;3.228;2023-02-04T03:08:40;13.77;;;7.00;;
49578;SDS011;35483;50.828;3.228;2023-02-04T03:11:08;14.40;;;6.70;;
49578;SDS011;35483;50.828;3.228;2023-02-04T03:13:34;9.73;;;6.90;;
49578;SDS011;35483;50.828;3.228;2023-02-04T03:16:01;9.45;;;7.03;;
49578;SDS011;35483;50.828;3.228;2023-02-04T03:18:28;9.68;;;7.05;;
49578;SDS011;35483;50.828;3.228;2023-02-04T03:20:55;10.60;;;6.78;;
49578;SDS011;35483;50.828;3.228;2023-02-04T03:23:22;11.52;;;7.43;;
49578;SDS011;35483;50.828;3.228;2023-02-04T03:25:49;13.65;;;7.10;;
49578;SDS011;35483;50.828;3.228;2023-02-04T03:28:15;12.02;;;6.55;;
49578;SDS011;35483;50.828;3.228;2023-02-04T03:30:41;10.73;;;6.63;;
49578;SDS011;35483;50.828;3.228;2023-02-04T03:33:07;9.70;;;6.38;;
49578;SDS011;35483;50.828;3.228;2023-02-04T03:35:32;8.70;;;6.25;;
49578;SDS011;35483;50.828;3.228;2023-02-04T03:37:58;10.23;;;6.13;;
49578;SDS011;35483;50.828;3.228;2023-02-04T03:40:24;11.45;;;7.63;;
49578;SDS011;35483;50.828;3.228;2023-02-04T03:42:50;12.68;;;7.00;;
49578;SDS011;35483;50.828;3.228;2023-02-04T03:45:15;14.70;;;7.00;;
49578;SDS011;35483;50.828;3.228;2023-02-04T03:47:41;11.18;;;7.00;;
49578;SDS011;35483;50.828;3.228;2023-02-04T03:50:07;11.93;;;7.50;;
49578;SDS011;35483;50.828;3.228;2023-02-04T03:52:35;10.02;;;5.97;;
49578;SDS011;35483;50.828;3.228;2023-02-04T03:55:00;12.40;;;7.72;;
49578;SDS011;35483;50.828;3.228;2023-02-04T03:57:26;14.40;;;7.78;;
49578;SDS011;35483;50.828;3.228;2023-02-04T03:59:52;13.57;;;7.70;;
49578;SDS011;35483;50.828;3.228;2023-02-04T04:02:17;12.73;;;7.65;;
49578;SDS011;35483;50.828;3.228;2023-02-04T04:04:43;10.63;;;7.88;;
49578;SDS011;35483;50.828;3.228;2023-02-04T04:07:08;11.90;;;6.95;;
49578;SDS011;35483;50.828;3.228;2023-02-04T04:09:35;10.27;;;6.97;;
49578;SDS011;35483;50.828;3.228;2023-02-04T04:12:01;9.50;;;6.43;;
49578;SDS011;35483;50.828;3.228;2023-02-04T04:14:28;12.70;;;6.93;;
49578;SDS011;35483;50.828;3.228;2023-02-04T04:16:54;10.07;;;7.00;;
49578;SDS011;35483;50.828;3.228;2023-02-04T04:19:19;10.52;;;7.05;;
49578;SDS011;35483;50.828;3.228;2023-02-04T04:21:45;9.93;;;6.93;;
49578;SDS011;35483;50.828;3.228;2023-02-04T04:24:11;11.38;;;6.57;;
49578;SDS011;35483;50.828;3.228;2023-02-04T04:26:36;14.25;;;6.70;;
49578;SDS011;35483;50.828;3.228;2023-02-04T04:29:02;12.18;;;6.75;;
49578;SDS011;35483;50.828;3.228;2023-02-04T04:31:28;10.77;;;6.65;;
49578;SDS011;35483;50.828;3.228;2023-02-04T04:33:54;9.10;;;6.60;;
49578;SDS011;35483;50.828;3.228;2023-02-04T04:36:19;11.57;;;7.35;;
49578;SDS011;35483;50.828;3.228;2023-02-04T04:38:45;13.00;;;7.38;;
49578;SDS011;35483;50.828;3.228;2023-02-04T04:41:11;9.85;;;7.15;;
49578;SDS011;35483;50.828;3.228;2023-02-04T04:43:36;9.77;;;6.53;;
49578;SDS011;35483;50.828;3.228;2023-02-04T04:46:02;9.70;;;6.35;;
49578;SDS011;35483;50.828;3.228;2023-02-04T04:48:28;13.38;;;6.72;;
49578;SDS011;35483;50.828;3.228;2023-02-04T04:50:53;12.32;;;6.43;;
49578;SDS011;35483;50.828;3.228;2023-02-04T04:53:19;11.60;;;5.93;;
49578;SDS011;35483;50.828;3.228;2023-02-04T04:55:45;9.10;;;5.93;;
49578;SDS011;35483;50.828;3.228;2023-02-04T04:58:10;11.77;;;6.30;;
49578;SDS011;35483;50.828;3.228;2023-02-04T05:00:36;6.95;;;5.20;;
49578;SDS011;35483;50.828;3.228;2023-02-04T05:03:02;10.40;;;5.90;;
49578;SDS011;35483;50.828;3.228;2023-02-04T05:05:28;12.35;;;6.47;;
49578;SDS011;35483;50.828;3.228;2023-02-04T05:07:54;10.10;;;5.13;;
49578;SDS011;35483;50.828;3.228;2023-02-04T05:10:19;11.05;;;5.47;;
49578;SDS011;35483;50.828;3.228;2023-02-04T05:12:45;9.38;;;6.05;;
49578;SDS011;35483;50.828;3.228;2023-02-04T05:15:11;13.15;;;6.28;;
49578;SDS011;35483;50.828;3.228;2023-02-04T05:17:37;7.68;;;5.43;;
49578;SDS011;35483;50.828;3.228;2023-02-04T05:20:03;8.63;;;5.45;;
49578;SDS011;35483;50.828;3.228;2023-02-04T05:22:29;9.25;;;5.47;;
49578;SDS011;35483;50.828;3.228;2023-02-04T05:24:55;8.65;;;5.68;;
49578;SDS011;35483;50.828;3.228;2023-02-04T05:27:20;10.05;;;6.47;;
49578;SDS011;35483;50.828;3.228;2023-02-04T05:29:46;9.93;;;6.13;;
49578;SDS011;35483;50.828;3.228;2023-02-04T05:32:12;13.15;;;6.15;;
49578;SDS011;35483;50.828;3.228;2023-02-04T05:34:37;9.50;;;6.25;;
49578;SDS011;35483;50.828;3.228;2023-02-04T05:37:03;8.90;;;5.68;;
49578;SDS011;35483;50.828;3.228;2023-02-04T05:39:29;8.50;;;5.88;;
49578;SDS011;35483;50.828;3.228;2023-02-04T05:41:54;9.23;;;6.78;;
49578;SDS011;35483;50.828;3.228;2023-02-04T05:44:20;10.98;;;6.82;;
49578;SDS011;35483;50.828;3.228;2023-02-04T05:46:46;13.45;;;7.65;;
49578;SDS011;35483;50.828;3.228;2023-02-04T05:49:12;8.15;;;6.60;;
49578;SDS011;35483;50.828;3.228;2023-02-04T05:51:37;11.80;;;7.38;;
49578;SDS011;35483;50.828;3.228;2023-02-04T05:54:03;11.48;;;7.40;;
49578;SDS011;35483;50.828;3.228;2023-02-04T05:56:29;8.77;;;6.68;;
49578;SDS011;35483;50.828;3.228;2023-02-04T05:58:55;13.15;;;7.57;;
49578;SDS011;35483;50.828;3.228;2023-02-04T06:01:22;14.90;;;8.27;;
49578;SDS011;35483;50.828;3.228;2023-02-04T06:03:48;10.88;;;7.13;;
49578;SDS011;35483;50.828;3.228;2023-02-04T06:06:13;12.50;;;8.00;;
49578;SDS011;35483;50.828;3.228;2023-02-04T06:08:39;11.68;;;7.40;;
49578;SDS011;35483;50.828;3.228;2023-02-04T06:11:05;14.95;;;9.40;;
49578;SDS011;35483;50.828;3.228;2023-02-04T06:13:30;12.73;;;9.00;;
49578;SDS011;35483;50.828;3.228;2023-02-04T06:15:56;12.63;;;8.55;;
49578;SDS011;35483;50.828;3.228;2023-02-04T06:18:22;13.43;;;9.23;;
49578;SDS011;35483;50.828;3.228;2023-02-04T06:20:47;13.63;;;9.18;;
49578;SDS011;35483;50.828;3.228;2023-02-04T06:23:13;16.83;;;9.07;;
49578;SDS011;35483;50.828;3.228;2023-02-04T06:25:39;12.90;;;8.90;;
49578;SDS011;35483;50.828;3.228;2023-02-04T06:28:04;12.50;;;9.20;;
49578;SDS011;35483;50.828;3.228;2023-02-04T06:30:31;12.35;;;9.88;;
49578;SDS011;35483;50.828;3.228;2023-02-04T06:32:57;15.77;;;9.43;;
49578;SDS011;35483;50.828;3.228;2023-02-04T06:35:22;11.98;;;9.00;;
49578;SDS011;35483;50.828;3.228;2023-02-04T06:37:48;12.15;;;8.75;;
49578;SDS011;35483;50.828;3.228;2023-02-04T06:40:14;12.55;;;9.55;;
49578;SDS011;35483;50.828;3.228;2023-02-04T06:42:41;14.98;;;10.25;;
49578;SDS011;35483;50.828;3.228;2023-02-04T06:45:07;10.80;;;8.27;;
49578;SDS011;35483;50.828;3.228;2023-02-04T06:47:33;17.88;;;9.93;;
49578;SDS011;35483;50.828;3.228;2023-02-04T06:49:59;15.85;;;9.55;;
49578;SDS011;35483;50.828;3.228;2023-02-04T06:52:25;13.43;;;9.05;;
49578;SDS011;35483;50.828;3.228;2023-02-04T06:54:50;11.77;;;8.50;;
49578;SDS011;35483;50.828;3.228;2023-02-04T06:57:16;12.60;;;8.85;;
49578;SDS011;35483;50.828;3.228;2023-02-04T06:59:42;11.25;;;7.88;;
49578;SDS011;35483;50.828;3.228;2023-02-04T07:02:09;12.63;;;7.68;;
49578;SDS011;35483;50.828;3.228;2023-02-04T07:04:36;10.90;;;7.07;;
49578;SDS011;35483;50.828;3.228;2023-02-04T07:07:02;11.27;;;7.45;;
49578;SDS011;35483;50.828;3.228;2023-02-04T07:09:27;10.68;;;7.00;;
49578;SDS011;35483;50.828;3.228;2023-02-04T07:11:53;10.00;;;6.45;;
49578;SDS011;35483;50.828;3.228;2023-02-04T07:14:19;8.60;;;6.93;;
49578;SDS011;35483;50.828;3.228;2023-02-04T07:16:45;9.43;;;6.20;;
49578;SDS011;35483;50.828;3.228;2023-02-04T07:19:10;7.60;;;6.03;;
49578;SDS011;35483;50.828;3.228;2023-02-04T07:21:36;9.20;;;5.88;;
49578;SDS011;35483;50.828;3.228;2023-02-04T07:24:02;10.43;;;6.35;;
49578;SDS011;35483;50.828;3.228;2023-02-04T07:26:29;9.85;;;6.07;;
49578;SDS011;35483;50.828;3.228;2023-02-04T07:28:54;8.18;;;5.70;;
49578;SDS011;35483;50.828;3.228;2023-02-04T07:31:20;7.07;;;5.93;;
49578;SDS011;35483;50.828;3.228;2023-02-04T07:33:46;8.05;;;6.18;;
49578;SDS011;35483;50.828;3.228;2023-02-04T07:36:12;6.75;;;5.53;;
49578;SDS011;35483;50.828;3.228;2023-02-04T07:38:37;8.93;;;6.22;;
49578;SDS011;35483;50.828;3.228;2023-02-04T07:41:03;7.22;;;6.40;;
49578;SDS011;35483;50.828;3.228;2023-02-04T07:43:29;9.20;;;6.93;;
49578;SDS011;35483;50.828;3.228;2023-02-04T07:45:54;11.00;;;7.15;;
49578;SDS011;35483;50.828;3.228;2023-02-04T07:48:20;10.23;;;7.05;;
49578;SDS011;35483;50.828;3.228;2023-02-04T07:50:46;7.60;;;6.80;;
49578;SDS011;35483;50.828;3.228;2023-02-04T07:53:11;13.98;;;7.55;;
49578;SDS011;35483;50.828;3.228;2023-02-04T07:55:37;10.38;;;6.68;;
49578;SDS011;35483;50.828;3.228;2023-02-04T07:58:03;10.13;;;6.63;;
49578;SDS011;35483;50.828;3.228;2023-02-04T08:00:29;13.27;;;7.78;;
49578;SDS011;35483;50.828;3.228;2023-02-04T08:02:55;9.38;;;7.78;;
49578;SDS011;35483;50.828;3.228;2023-02-04T08:05:20;11.00;;;7.68;;
49578;SDS011;35483;50.828;3.228;2023-02-04T08:07:46;10.77;;;7.13;;
49578;SDS011;35483;50.828;3.228;2023-02-04T08:10:12;11.82;;;7.80;;
49578;SDS011;35483;50.828;3.228;2023-02-04T08:12:37;10.45;;;8.02;;
49578;SDS011;35483;50.828;3.228;2023-02-04T08:15:03;10.73;;;8.07;;
49578;SDS011;35483;50.828;3.228;2023-02-04T08:17:31;13.05;;;9.18;;
49578;SDS011;35483;50.828;3.228;2023-02-04T08:19:57;13.90;;;9.98;;
49578;SDS011;35483;50.828;3.228;2023-02-04T08:22:23;14.68;;;10.00;;
49578;SDS011;35483;50.828;3.228;2023-02-04T08:24:48;12.77;;;10.13;;
49578;SDS011;35483;50.828;3.228;2023-02-04T08:27:14;13.95;;;10.73;;
49578;SDS011;35483;50.828;3.228;2023-02-04T08:29:40;13.95;;;11.50;;
49578;SDS011;35483;50.828;3.228;2023-02-04T08:32:06;18.45;;;11.93;;
49578;SDS011;35483;50.828;3.228;2023-02-04T08:34:34;14.95;;;12.40;;
49578;SDS011;35483;50.828;3.228;2023-02-04T08:37:00;15.68;;;13.40;;
49578;SDS011;35483;50.828;3.228;2023-02-04T08:39:25;15.45;;;12.43;;
49578;SDS011;35483;50.828;3.228;2023-02-04T08:41:51;14.40;;;12.63;;
49578;SDS011;35483;50.828;3.228;2023-02-04T08:44:17;20.55;;;13.20;;
49578;SDS011;35483;50.828;3.228;2023-02-04T08:46:43;14.77;;;12.65;;
49578;SDS011;35483;50.828;3.228;2023-02-04T08:49:08;17.65;;;14.00;;
49578;SDS011;35483;50.828;3.228;2023-02-04T08:51:34;21.60;;;16.58;;
49578;SDS011;35483;50.828;3.228;2023-02-04T08:54:00;20.20;;;17.30;;
49578;SDS011;35483;50.828;3.228;2023-02-04T08:56:25;15.55;;;13.68;;
49578;SDS011;35483;50.828;3.228;2023-02-04T08:58:51;16.45;;;14.38;;
49578;SDS011;35483;50.828;3.228;2023-02-04T09:01:18;17.05;;;13.65;;
49578;SDS011;35483;50.828;3.228;2023-02-04T09:03:44;19.60;;;15.23;;
49578;SDS011;35483;50.828;3.228;2023-02-04T09:06:10;17.15;;;14.32;;
49578;SDS011;35483;50.828;3.228;2023-02-04T09:08:36;17.10;;;13.10;;
49578;SDS011;35483;50.828;3.228;2023-02-04T09:11:02;18.45;;;13.35;;
49578;SDS011;35483;50.828;3.228;2023-02-04T09:13:29;17.40;;;12.32;;
49578;SDS011;35483;50.828;3.228;2023-02-04T09:15:56;17.23;;;12.77;;
49578;SDS011;35483;50.828;3.228;2023-02-04T09:18:22;18.30;;;12.88;;
49578;SDS011;35483;50.828;3.228;2023-02-04T09:20:50;17.27;;;12.40;;
49578;SDS011;35483;50.828;3.228;2023-02-04T09:23:16;14.65;;;11.40;;
49578;SDS011;35483;50.828;3.228;2023-02-04T09:25:42;13.68;;;12.02;;
49578;SDS011;35483;50.828;3.228;2023-02-04T09:28:09;14.73;;;11.77;;
49578;SDS011;35483;50.828;3.228;2023-02-04T09:30:39;13.60;;;10.13;;
49578;SDS011;35483;50.828;3.228;2023-02-04T09:33:07;14.90;;;10.35;;
49578;SDS011;35483;50.828;3.228;2023-02-04T09:35:34;11.95;;;8.90;;
49578;SDS011;35483;50.828;3.228;2023-02-04T09:38:00;11.48;;;9.23;;
49578;SDS011;35483;50.828;3.228;2023-02-04T09:40:26;12.23;;;9.00;;
49578;SDS011;35483;50.828;3.228;2023-02-04T09:42:54;9.95;;;8.88;;
49578;SDS011;35483;50.828;3.228;2023-02-04T09:45:21;11.55;;;8.00;;
49578;SDS011;35483;50.828;3.228;2023-02-04T09:47:50;10.18;;;8.07;;
49578;SDS011;35483;50.828;3.228;2023-02-04T09:50:19;8.95;;;7.10;;
49578;SDS011;35483;50.828;3.228;2023-02-04T09:52:47;10.02;;;7.55;;
49578;SDS011;35483;50.828;3.228;2023-02-04T09:55:15;9.00;;;7.13;;
49578;SDS011;35483;50.828;3.228;2023-02-04T09:57:42;8.05;;;6.88;;
49578;SDS011;35483;50.828;3.228;2023-02-04T10:00:19;11.18;;;7.10;;
49578;SDS011;35483;50.828;3.228;2023-02-04T10:02:46;12.52;;;6.72;;
49578;SDS011;35483;50.828;3.228;2023-02-04T10:05:20;10.48;;;6.97;;
49578;SDS011;35483;50.828;3.228;2023-02-04T10:07:51;8.10;;;6.68;;
49578;SDS011;35483;50.828;3.228;2023-02-04T10:10:19;10.27;;;6.75;;
49578;SDS011;35483;50.828;3.228;2023-02-04T10:12:46;9.15;;;6.28;;
49578;SDS011;35483;50.828;3.228;2023-02-04T10:15:15;11.35;;;7.63;;
49578;SDS011;35483;50.828;3.228;2023-02-04T10:17:46;8.88;;;6.78;;
49578;SDS011;35483;50.828;3.228;2023-02-04T10:20:24;9.20;;;7.25;;
49578;SDS011;35483;50.828;3.228;2023-02-04T10:22:51;10.38;;;7.35;;
49578;SDS011;35483;50.828;3.228;2023-02-04T10:25:19;9.43;;;6.78;;
49578;SDS011;35483;50.828;3.228;2023-02-04T10:27:48;10.40;;;6.88;;
49578;SDS011;35483;50.828;3.228;2023-02-04T10:30:23;7.95;;;6.57;;
49578;SDS011;35483;50.828;3.228;2023-02-04T10:32:52;8.77;;;6.50;;
49578;SDS011;35483;50.828;3.228;2023-02-04T10:35:19;8.07;;;5.80;;
49578;SDS011;35483;50.828;3.228;2023-02-04T10:37:46;8.57;;;6.30;;
49578;SDS011;35483;50.828;3.228;2023-02-04T10:40:26;6.90;;;6.20;;
49578;SDS011;35483;50.828;3.228;2023-02-04T10:42:56;8.45;;;6.65;;
49578;SDS011;35483;50.828;3.228;2023-02-04T10:45:26;7.40;;;6.22;;
49578;SDS011;35483;50.828;3.228;2023-02-04T10:47:54;9.07;;;6.00;;
49578;SDS011;35483;50.828;3.228;2023-02-04T10:50:21;10.50;;;6.80;;
49578;SDS011;35483;50.828;3.228;2023-02-04T10:52:53;6.38;;;5.25;;
49578;SDS011;35483;50.828;3.228;2023-02-04T10:55:40;9.52;;;6.20;;
49578;SDS011;35483;50.828;3.228;2023-02-04T10:58:11;7.50;;;5.57;;
49578;SDS011;35483;50.828;3.228;2023-02-04T11:00:39;9.25;;;5.70;;
49578;SDS011;35483;50.828;3.228;2023-02-04T11:03:06;10.00;;;6.45;;
49578;SDS011;35483;50.828;3.228;2023-02-04T11:05:36;7.57;;;6.38;;
49578;SDS011;35483;50.828;3.228;2023-02-04T11:08:02;7.07;;;5.70;;
49578;SDS011;35483;50.828;3.228;2023-02-04T11:10:43;8.75;;;6.40;;
49578;SDS011;35483;50.828;3.228;2023-02-04T11:13:19;10.38;;;6.70;;
49578;SDS011;35483;50.828;3.228;2023-02-04T11:26:36;9.95;;;7.00;;
49578;SDS011;35483;50.828;3.228;2023-02-04T11:36:50;7.82;;;5.50;;
49578;SDS011;35483;50.828;3.228;2023-02-04T11:42:01;7.43;;;5.18;;
49578;SDS011;35483;50.828;3.228;2023-02-04T11:44:27;8.82;;;5.60;;
49578;SDS011;35483;50.828;3.228;2023-02-04T11:46:54;7.72;;;5.45;;
49578;SDS011;35483;50.828;3.228;2023-02-04T11:49:21;8.20;;;5.30;;
49578;SDS011;35483;50.828;3.228;2023-02-04T11:51:49;6.97;;;5.63;;
49578;SDS011;35483;50.828;3.228;2023-02-04T11:54:15;6.60;;;5.10;;
49578;SDS011;35483;50.828;3.228;2023-02-04T11:56:46;6.55;;;5.07;;
49578;SDS011;35483;50.828;3.228;2023-02-04T11:59:13;8.55;;;4.95;;
49578;SDS011;35483;50.828;3.228;2023-02-04T12:01:39;5.63;;;4.88;;
49578;SDS011;35483;50.828;3.228;2023-02-04T12:04:06;7.50;;;4.88;;
49578;SDS011;35483;50.828;3.228;2023-02-04T12:06:55;6.93;;;4.97;;
49578;SDS011;35483;50.828;3.228;2023-02-04T12:09:24;5.45;;;4.70;;
49578;SDS011;35483;50.828;3.228;2023-02-04T12:11:51;5.82;;;4.43;;
49578;SDS011;35483;50.828;3.228;2023-02-04T12:14:26;7.43;;;5.53;;
49578;SDS011;35483;50.828;3.228;2023-02-04T12:16:53;5.82;;;4.28;;
49578;SDS011;35483;50.828;3.228;2023-02-04T12:19:20;6.80;;;4.68;;
49578;SDS011;35483;50.828;3.228;2023-02-04T12:21:46;6.60;;;4.30;;
49578;SDS011;35483;50.828;3.228;2023-02-04T12:24:11;6.97;;;4.55;;
49578;SDS011;35483;50.828;3.228;2023-02-04T12:26:37;6.72;;;4.50;;
49578;SDS011;35483;50.828;3.228;2023-02-04T12:29:03;5.60;;;4.70;;
49578;SDS011;35483;50.828;3.228;2023-02-04T12:31:29;5.93;;;4.50;;
49578;SDS011;35483;50.828;3.228;2023-02-04T12:33:56;4.82;;;4.00;;
49578;SDS011;35483;50.828;3.228;2023-02-04T12:36:22;7.63;;;5.03;;
49578;SDS011;35483;50.828;3.228;2023-02-04T12:38:49;8.23;;;4.82;;
49578;SDS011;35483;50.828;3.228;2023-02-04T12:41:14;6.70;;;5.15;;
49578;SDS011;35483;50.828;3.228;2023-02-04T12:43:40;6.75;;;4.57;;
49578;SDS011;35483;50.828;3.228;2023-02-04T12:46:05;5.75;;;4.72;;
49578;SDS011;35483;50.828;3.228;2023-02-04T12:48:31;6.68;;;4.50;;
49578;SDS011;35483;50.828;3.228;2023-02-04T12:50:57;7.80;;;5.22;;
49578;SDS011;35483;50.828;3.228;2023-02-04T12:53:22;8.27;;;4.93;;
49578;SDS011;35483;50.828;3.228;2023-02-04T12:55:48;6.22;;;4.95;;
49578;SDS011;35483;50.828;3.228;2023-02-04T12:58:14;6.78;;;4.60;;
49578;SDS011;35483;50.828;3.228;2023-02-04T13:00:39;5.97;;;3.92;;
49578;SDS011;35483;50.828;3.228;2023-02-04T13:03:06;8.30;;;4.47;;
49578;SDS011;35483;50.828;3.228;2023-02-04T13:05:32;8.35;;;4.90;;
49578;SDS011;35483;50.828;3.228;2023-02-04T13:08:00;9.13;;;5.40;;
49578;SDS011;35483;50.828;3.228;2023-02-04T13:10:26;6.78;;;4.93;;
49578;SDS011;35483;50.828;3.228;2023-02-04T13:12:51;8.15;;;4.90;;
49578;SDS011;35483;50.828;3.228;2023-02-04T13:15:17;7.43;;;4.60;;
49578;SDS011;35483;50.828;3.228;2023-02-04T13:17:43;6.80;;;5.07;;
49578;SDS011;35483;50.828;3.228;2023-02-04T13:20:09;9.15;;;5.00;;
49578;SDS011;35483;50.828;3.228;2023-02-04T13:22:36;5.97;;;4.78;;
49578;SDS011;35483;50.828;3.228;2023-02-04T13:25:02;8.70;;;5.10;;
49578;SDS011;35483;50.828;3.228;2023-02-04T13:27:29;5.63;;;4.95;;
49578;SDS011;35483;50.828;3.228;2023-02-04T13:29:56;6.78;;;4.80;;
49578;SDS011;35483;50.828;3.228;2023-02-04T13:32:22;7.88;;;5.00;;
49578;SDS011;35483;50.828;3.228;2023-02-04T13:34:47;5.78;;;4.80;;
49578;SDS011;35483;50.828;3.228;2023-02-04T13:37:13;7.47;;;5.15;;
49578;SDS011;35483;50.828;3.228;2023-02-04T13:39:39;10.02;;;5.72;;
49578;SDS011;35483;50.828;3.228;2023-02-04T13:42:04;5.95;;;5.07;;
49578;SDS011;35483;50.828;3.228;2023-02-04T13:44:30;8.00;;;5.38;;
49578;SDS011;35483;50.828;3.228;2023-02-04T13:46:56;11.50;;;5.63;;
49578;SDS011;35483;50.828;3.228;2023-02-04T13:49:21;8.25;;;5.90;;
49578;SDS011;35483;50.828;3.228;2023-02-04T13:51:47;6.38;;;5.40;;
49578;SDS011;35483;50.828;3.228;2023-02-04T13:54:13;7.63;;;5.90;;
49578;SDS011;35483;50.828;3.228;2023-02-04T13:56:39;10.52;;;6.03;;
49578;SDS011;35483;50.828;3.228;2023-02-04T13:59:05;8.25;;;5.90;;
49578;SDS011;35483;50.828;3.228;2023-02-04T14:01:31;6.22;;;5.00;;
49578;SDS011;35483;50.828;3.228;2023-02-04T14:03:57;8.48;;;6.13;;
49578;SDS011;35483;50.828;3.228;2023-02-04T14:06:22;9.55;;;6.35;;
49578;SDS011;35483;50.828;3.228;2023-02-04T14:08:57;11.10;;;6.60;;
49578;SDS011;35483;50.828;3.228;2023-02-04T14:11:24;7.50;;;6.55;;
49578;SDS011;35483;50.828;3.228;2023-02-04T14:13:49;9.73;;;7.07;;
49578;SDS011;35483;50.828;3.228;2023-02-04T14:16:15;9.10;;;6.78;;
49578;SDS011;35483;50.828;3.228;2023-02-04T14:18:41;9.75;;;7.93;;
49578;SDS011;35483;50.828;3.228;2023-02-04T14:21:06;10.48;;;7.10;;
49578;SDS011;35483;50.828;3.228;2023-02-04T14:23:32;10.02;;;6.95;;
49578;SDS011;35483;50.828;3.228;2023-02-04T14:25:58;8.30;;;6.38;;
49578;SDS011;35483;50.828;3.228;2023-02-04T14:28:23;11.60;;;7.45;;
49578;SDS011;35483;50.828;3.228;2023-02-04T14:30:49;8.80;;;7.38;;
49578;SDS011;35483;50.828;3.228;2023-02-04T14:33:15;10.57;;;7.70;;
49578;SDS011;35483;50.828;3.228;2023-02-04T14:35:42;8.43;;;6.82;;
49578;SDS011;35483;50.828;3.228;2023-02-04T14:38:08;10.73;;;7.57;;
49578;SDS011;35483;50.828;3.228;2023-02-04T14:40:35;8.10;;;7.22;;
49578;SDS011;35483;50.828;3.228;2023-02-04T14:43:01;9.77;;;7.55;;
49578;SDS011;35483;50.828;3.228;2023-02-04T14:45:27;8.82;;;6.93;;
49578;SDS011;35483;50.828;3.228;2023-02-04T14:47:53;10.77;;;8.00;;
49578;SDS011;35483;50.828;3.228;2023-02-04T14:50:21;12.50;;;8.70;;
49578;SDS011;35483;50.828;3.228;2023-02-04T14:52:51;10.85;;;8.52;;
49578;SDS011;35483;50.828;3.228;2023-02-04T14:55:17;10.93;;;9.40;;
49578;SDS011;35483;50.828;3.228;2023-02-04T14:57:43;9.07;;;7.50;;
49578;SDS011;35483;50.828;3.228;2023-02-04T15:00:09;10.65;;;8.70;;
49578;SDS011;35483;50.828;3.228;2023-02-04T15:02:35;9.98;;;8.15;;